sensor_id;sensor_type;location;lat;lon;timestamp;pressure;altitude;pressure_sealevel;temperature;humidity
65666;BME280;52365;47.464;18.976;2023-02-19T00:00:05;99892.63;;;13.73;51.34
65666;BME280;52365;47.464;18.976;2023-02-19T00:00:42;99892.38;;;13.56;51.54
65666;BME280;52365;47.464;18.976;2023-02-19T00:01:22;99895.19;;;13.62;51.62
65666;BME280;52365;47.464;18.976;2023-02-19T00:01:58;99895.19;;;13.47;51.87
65666;BME280;52365;47.464;18.976;2023-02-19T00:02:34;99886.19;;;13.70;51.45
65666;BME280;52365;47.464;18.976;2023-02-19T00:03:10;99889.56;;;13.65;51.42
65666;BME280;52365;47.464;18.976;2023-02-19T00:03:51;99892.25;;;13.65;51.41
65666;BME280;52365;47.464;18.976;2023-02-19T00:04:28;99886.19;;;13.70;51.42
65666;BME280;52365;47.464;18.976;2023-02-19T00:05:04;99884.47;;;13.88;51.29
65666;BME280;52365;47.464;18.976;2023-02-19T00:05:40;99874.62;;;13.70;51.40
65666;BME280;52365;47.464;18.976;2023-02-19T00:06:17;99884.94;;;13.51;52.00
65666;BME280;52365;47.464;18.976;2023-02-19T00:06:54;99876.00;;;13.65;51.72
65666;BME280;52365;47.464;18.976;2023-02-19T00:07:30;99878.94;;;13.62;51.62
65666;BME280;52365;47.464;18.976;2023-02-19T00:08:06;99882.59;;;13.58;51.80
65666;BME280;52365;47.464;18.976;2023-02-19T00:08:42;99884.44;;;13.67;51.52
65666;BME280;52365;47.464;18.976;2023-02-19T00:09:19;99892.16;;;13.74;51.08
65666;BME280;52365;47.464;18.976;2023-02-19T00:09:56;99882.62;;;13.79;50.99
65666;BME280;52365;47.464;18.976;2023-02-19T00:10:32;99884.69;;;13.69;51.50
65666;BME280;52365;47.464;18.976;2023-02-19T00:11:16;99891.53;;;13.65;51.66
65666;BME280;52365;47.464;18.976;2023-02-19T00:11:52;99886.19;;;13.70;51.61
65666;BME280;52365;47.464;18.976;2023-02-19T00:12:28;99883.62;;;13.81;51.40
65666;BME280;52365;47.464;18.976;2023-02-19T00:13:04;99890.81;;;13.84;51.23
65666;BME280;52365;47.464;18.976;2023-02-19T00:13:42;99888.31;;;13.81;51.17
65666;BME280;52365;47.464;18.976;2023-02-19T00:14:20;99890.53;;;13.82;51.30
65666;BME280;52365;47.464;18.976;2023-02-19T00:14:56;99882.81;;;13.75;51.30
65666;BME280;52365;47.464;18.976;2023-02-19T00:15:33;99883.00;;;13.72;51.40
65666;BME280;52365;47.464;18.976;2023-02-19T00:16:12;99883.94;;;13.69;51.47
65666;BME280;52365;47.464;18.976;2023-02-19T00:16:48;99887.31;;;13.64;51.56
65666;BME280;52365;47.464;18.976;2023-02-19T00:17:24;99894.34;;;13.91;51.08
65666;BME280;52365;47.464;18.976;2023-02-19T00:18:00;99877.97;;;13.79;51.17
65666;BME280;52365;47.464;18.976;2023-02-19T00:18:36;99879.13;;;13.58;51.47
65666;BME280;52365;47.464;18.976;2023-02-19T00:19:15;99886.94;;;13.71;51.51
65666;BME280;52365;47.464;18.976;2023-02-19T00:19:51;99890.22;;;13.60;51.97
65666;BME280;52365;47.464;18.976;2023-02-19T00:20:27;99886.59;;;13.63;51.71
65666;BME280;52365;47.464;18.976;2023-02-19T00:21:03;99893.97;;;13.63;51.82
65666;BME280;52365;47.464;18.976;2023-02-19T00:21:40;99890.75;;;13.44;52.07
65666;BME280;52365;47.464;18.976;2023-02-19T00:22:16;99883.81;;;13.57;51.97
65666;BME280;52365;47.464;18.976;2023-02-19T00:22:52;99881.41;;;13.45;52.15
65666;BME280;52365;47.464;18.976;2023-02-19T00:23:29;99880.34;;;13.57;52.09
65666;BME280;52365;47.464;18.976;2023-02-19T00:24:14;99875.62;;;13.72;51.72
65666;BME280;52365;47.464;18.976;2023-02-19T00:24:50;99873.78;;;13.64;52.00
65666;BME280;52365;47.464;18.976;2023-02-19T00:25:26;99876.97;;;13.62;51.74
65666;BME280;52365;47.464;18.976;2023-02-19T00:26:07;99881.88;;;13.78;51.46
65666;BME280;52365;47.464;18.976;2023-02-19T00:26:44;99882.62;;;13.79;51.50
65666;BME280;52365;47.464;18.976;2023-02-19T00:27:21;99879.69;;;13.82;51.36
65666;BME280;52365;47.464;18.976;2023-02-19T00:28:27;99887.25;;;13.93;51.24
65666;BME280;52365;47.464;18.976;2023-02-19T00:29:02;99889.66;;;13.91;51.22
65666;BME280;52365;47.464;18.976;2023-02-19T00:29:38;99881.53;;;13.91;51.38
65666;BME280;52365;47.464;18.976;2023-02-19T00:30:14;99876.34;;;13.88;51.47
65666;BME280;52365;47.464;18.976;2023-02-19T00:30:50;99882.41;;;13.82;51.53
65666;BME280;52365;47.464;18.976;2023-02-19T00:31:31;99877.34;;;13.90;51.50
65666;BME280;52365;47.464;18.976;2023-02-19T00:32:08;99879.69;;;13.82;51.61
65666;BME280;52365;47.464;18.976;2023-02-19T00:32:49;99883.25;;;13.89;51.34
65666;BME280;52365;47.464;18.976;2023-02-19T00:33:25;99877.28;;;13.84;51.37
65666;BME280;52365;47.464;18.976;2023-02-19T00:34:04;99873.78;;;13.64;52.01
65666;BME280;52365;47.464;18.976;2023-02-19T00:34:40;99872.19;;;13.72;51.76
65666;BME280;52365;47.464;18.976;2023-02-19T00:35:16;99873.09;;;13.83;51.88
65666;BME280;52365;47.464;18.976;2023-02-19T00:35:53;99877.13;;;13.73;51.93
65666;BME280;52365;47.464;18.976;2023-02-19T00:36:29;99876.94;;;13.77;51.84
65666;BME280;52365;47.464;18.976;2023-02-19T00:37:05;99867.50;;;13.72;51.71
65666;BME280;52365;47.464;18.976;2023-02-19T00:37:41;99873.81;;;13.84;51.47
65666;BME280;52365;47.464;18.976;2023-02-19T00:38:17;99880.59;;;13.94;51.15
65666;BME280;52365;47.464;18.976;2023-02-19T00:38:54;99875.31;;;13.85;51.31
65666;BME280;52365;47.464;18.976;2023-02-19T00:39:30;99870.03;;;13.76;51.39
65666;BME280;52365;47.464;18.976;2023-02-19T00:40:06;99867.38;;;13.61;51.68
65666;BME280;52365;47.464;18.976;2023-02-19T00:40:42;99872.63;;;13.50;52.18
65666;BME280;52365;47.464;18.976;2023-02-19T00:41:20;99865.28;;;13.71;51.94
65666;BME280;52365;47.464;18.976;2023-02-19T00:41:56;99866.75;;;13.72;51.93
65666;BME280;52365;47.464;18.976;2023-02-19T00:42:34;99874.03;;;13.80;51.74
65666;BME280;52365;47.464;18.976;2023-02-19T00:43:10;99872.59;;;13.85;51.57
65666;BME280;52365;47.464;18.976;2023-02-19T00:43:59;99872.72;;;13.76;51.88
65666;BME280;52365;47.464;18.976;2023-02-19T00:44:35;99871.25;;;13.75;51.46
65666;BME280;52365;47.464;18.976;2023-02-19T00:45:11;99866.56;;;13.75;51.62
65666;BME280;52365;47.464;18.976;2023-02-19T00:45:47;99862.44;;;13.80;51.50
65666;BME280;52365;47.464;18.976;2023-02-19T00:46:26;99866.50;;;13.70;51.70
65666;BME280;52365;47.464;18.976;2023-02-19T00:47:02;99865.28;;;13.71;51.68
65666;BME280;52365;47.464;18.976;2023-02-19T00:47:38;99867.50;;;13.72;51.65
65666;BME280;52365;47.464;18.976;2023-02-19T00:48:14;99861.19;;;13.60;51.92
65666;BME280;52365;47.464;18.976;2023-02-19T00:48:51;99862.28;;;13.69;51.88
65666;BME280;52365;47.464;18.976;2023-02-19T00:49:27;99869.00;;;13.73;51.80
65666;BME280;52365;47.464;18.976;2023-02-19T00:50:03;99866.09;;;13.77;51.67
65666;BME280;52365;47.464;18.976;2023-02-19T00:50:39;99867.78;;;13.74;51.76
65666;BME280;52365;47.464;18.976;2023-02-19T00:51:15;99860.72;;;13.62;52.13
65666;BME280;52365;47.464;18.976;2023-02-19T00:51:52;99861.94;;;13.61;52.32
65666;BME280;52365;47.464;18.976;2023-02-19T00:52:28;99873.47;;;13.76;51.91
65666;BME280;52365;47.464;18.976;2023-02-19T00:53:04;99865.03;;;13.54;52.21
65666;BME280;52365;47.464;18.976;2023-02-19T00:53:40;99868.69;;;13.51;53.10
65666;BME280;52365;47.464;18.976;2023-02-19T00:54:17;99868.00;;;13.71;52.36
65666;BME280;52365;47.464;18.976;2023-02-19T00:54:53;99862.84;;;13.73;52.11
65666;BME280;52365;47.464;18.976;2023-02-19T00:55:29;99871.69;;;13.53;52.63
65666;BME280;52365;47.464;18.976;2023-02-19T00:56:05;99861.22;;;13.46;52.87
65666;BME280;52365;47.464;18.976;2023-02-19T00:56:42;99860.59;;;13.71;52.54
65666;BME280;52365;47.464;18.976;2023-02-19T00:57:18;99870.97;;;13.73;52.33
65666;BME280;52365;47.464;18.976;2023-02-19T00:57:54;99869.53;;;13.77;52.61
65666;BME280;52365;47.464;18.976;2023-02-19T00:58:30;99868.78;;;13.77;52.32
65666;BME280;52365;47.464;18.976;2023-02-19T00:59:07;99865.72;;;13.69;52.38
65666;BME280;52365;47.464;18.976;2023-02-19T00:59:44;99874.97;;;13.77;52.49
65666;BME280;52365;47.464;18.976;2023-02-19T01:00:20;99867.66;;;13.83;52.33
65666;BME280;52365;47.464;18.976;2023-02-19T01:00:56;99870.44;;;13.89;52.16
65666;BME280;52365;47.464;18.976;2023-02-19T01:01:32;99871.06;;;13.78;52.32
65666;BME280;52365;47.464;18.976;2023-02-19T01:02:09;99861.81;;;13.91;52.24
65666;BME280;52365;47.464;18.976;2023-02-19T01:02:45;99861.69;;;14.00;51.83
65666;BME280;52365;47.464;18.976;2023-02-19T01:03:24;99868.59;;;13.80;52.33
65666;BME280;52365;47.464;18.976;2023-02-19T01:04:01;99859.66;;;13.74;52.79
65666;BME280;52365;47.464;18.976;2023-02-19T01:04:37;99857.06;;;13.65;52.99
65666;BME280;52365;47.464;18.976;2023-02-19T01:05:13;99863.03;;;13.69;53.14
65666;BME280;52365;47.464;18.976;2023-02-19T01:05:50;99870.09;;;13.81;52.70
65666;BME280;52365;47.464;18.976;2023-02-19T01:06:26;99865.47;;;13.67;52.91
65666;BME280;52365;47.464;18.976;2023-02-19T01:07:04;99859.75;;;13.65;52.94
65666;BME280;52365;47.464;18.976;2023-02-19T01:07:40;99868.25;;;13.73;52.74
65666;BME280;52365;47.464;18.976;2023-02-19T01:08:17;99865.47;;;13.67;52.63
65666;BME280;52365;47.464;18.976;2023-02-19T01:08:53;99868.41;;;13.49;53.15
65666;BME280;52365;47.464;18.976;2023-02-19T01:09:29;99867.47;;;13.52;53.11
65666;BME280;52365;47.464;18.976;2023-02-19T01:10:05;99857.47;;;13.58;53.00
65666;BME280;52365;47.464;18.976;2023-02-19T01:10:41;99858.22;;;13.58;52.80
65666;BME280;52365;47.464;18.976;2023-02-19T01:11:17;99861.97;;;13.46;53.20
65666;BME280;52365;47.464;18.976;2023-02-19T01:11:55;99868.59;;;13.45;53.11
65666;BME280;52365;47.464;18.976;2023-02-19T01:12:31;99857.84;;;13.51;52.86
65666;BME280;52365;47.464;18.976;2023-02-19T01:13:07;99860.56;;;13.51;52.87
65666;BME280;52365;47.464;18.976;2023-02-19T01:13:43;99854.69;;;13.52;52.84
65666;BME280;52365;47.464;18.976;2023-02-19T01:14:19;99858.22;;;13.58;52.75
65666;BME280;52365;47.464;18.976;2023-02-19T01:14:56;99860.59;;;13.71;52.40
65666;BME280;52365;47.464;18.976;2023-02-19T01:15:32;99859.00;;;13.79;52.17
65666;BME280;52365;47.464;18.976;2023-02-19T01:16:48;99868.59;;;13.80;52.21
65666;BME280;52365;47.464;18.976;2023-02-19T01:17:25;99862.56;;;13.71;52.31
65666;BME280;52365;47.464;18.976;2023-02-19T01:18:01;99858.75;;;13.63;52.62
65666;BME280;52365;47.464;18.976;2023-02-19T01:18:37;99859.25;;;13.61;52.73
65666;BME280;52365;47.464;18.976;2023-02-19T01:19:13;99851.31;;;13.57;52.73
65666;BME280;52365;47.464;18.976;2023-02-19T01:19:49;99852.97;;;13.70;52.52
65666;BME280;52365;47.464;18.976;2023-02-19T01:20:26;99849.78;;;13.71;52.55
65666;BME280;52365;47.464;18.976;2023-02-19T01:21:06;99851.31;;;13.57;52.81
65666;BME280;52365;47.464;18.976;2023-02-19T01:21:43;99849.37;;;13.78;52.44
65666;BME280;52365;47.464;18.976;2023-02-19T01:22:19;99860.41;;;13.75;52.03
65666;BME280;52365;47.464;18.976;2023-02-19T01:22:55;99862.28;;;13.69;52.17
65666;BME280;52365;47.464;18.976;2023-02-19T01:23:31;99860.59;;;13.71;52.13
65666;BME280;52365;47.464;18.976;2023-02-19T01:24:08;99858.03;;;13.82;51.88
65666;BME280;52365;47.464;18.976;2023-02-19T01:24:44;99862.44;;;13.80;51.92
65666;BME280;52365;47.464;18.976;2023-02-19T01:25:20;99857.50;;;13.78;52.11
65666;BME280;52365;47.464;18.976;2023-02-19T01:25:56;99859.41;;;13.93;51.76
65666;BME280;52365;47.464;18.976;2023-02-19T01:26:32;99852.62;;;14.03;51.54
65666;BME280;52365;47.464;18.976;2023-02-19T01:27:08;99854.81;;;14.19;50.91
65666;BME280;52365;47.464;18.976;2023-02-19T01:27:45;99851.75;;;14.11;51.14
65666;BME280;52365;47.464;18.976;2023-02-19T01:28:21;99848.16;;;14.00;51.21
65666;BME280;52365;47.464;18.976;2023-02-19T01:28:59;99846.75;;;13.84;51.71
65666;BME280;52365;47.464;18.976;2023-02-19T01:29:36;99856.84;;;13.83;51.70
65666;BME280;52365;47.464;18.976;2023-02-19T01:30:12;99856.91;;;13.89;51.81
65666;BME280;52365;47.464;18.976;2023-02-19T01:30:48;99851.47;;;13.89;51.87
65666;BME280;52365;47.464;18.976;2023-02-19T01:31:24;99854.38;;;13.85;51.84
65666;BME280;52365;47.464;18.976;2023-02-19T01:32:00;99855.19;;;13.71;52.06
65666;BME280;52365;47.464;18.976;2023-02-19T01:32:36;99855.56;;;13.64;52.19
65666;BME280;52365;47.464;18.976;2023-02-19T01:33:12;99860.53;;;13.66;52.34
65666;BME280;52365;47.464;18.976;2023-02-19T01:34:00;99854.25;;;13.74;52.10
65666;BME280;52365;47.464;18.976;2023-02-19T01:34:36;99853.84;;;13.81;51.95
65666;BME280;52365;47.464;18.976;2023-02-19T01:35:12;99858.13;;;13.88;51.94
65666;BME280;52365;47.464;18.976;2023-02-19T01:35:48;99860.22;;;13.78;51.85
65666;BME280;52365;47.464;18.976;2023-02-19T01:36:25;99863.00;;;13.84;51.96
65666;BME280;52365;47.464;18.976;2023-02-19T01:37:02;99856.34;;;13.85;51.95
65666;BME280;52365;47.464;18.976;2023-02-19T01:37:38;99862.63;;;13.76;52.12
65666;BME280;52365;47.464;18.976;2023-02-19T01:38:14;99860.66;;;13.56;52.45
65666;BME280;52365;47.464;18.976;2023-02-19T01:38:50;99852.41;;;13.66;52.47
65666;BME280;52365;47.464;18.976;2023-02-19T01:39:26;99858.16;;;13.73;52.40
65666;BME280;52365;47.464;18.976;2023-02-19T01:40:03;99854.34;;;13.65;52.49
65666;BME280;52365;47.464;18.976;2023-02-19T01:40:39;99856.13;;;13.68;52.65
65666;BME280;52365;47.464;18.976;2023-02-19T01:41:17;99850.09;;;13.58;52.82
65666;BME280;52365;47.464;18.976;2023-02-19T01:41:54;99854.22;;;13.54;52.90
65666;BME280;52365;47.464;18.976;2023-02-19T01:42:30;99851.63;;;13.45;53.30
65666;BME280;52365;47.464;18.976;2023-02-19T01:43:14;99851.22;;;13.52;53.18
65666;BME280;52365;47.464;18.976;2023-02-19T01:43:54;99844.72;;;13.44;53.51
65666;BME280;52365;47.464;18.976;2023-02-19T01:45:45;99845.16;;;13.57;53.16
65666;BME280;52365;47.464;18.976;2023-02-19T01:46:24;99850.75;;;13.53;53.34
65666;BME280;52365;47.464;18.976;2023-02-19T01:47:00;99853.28;;;13.77;52.77
65666;BME280;52365;47.464;18.976;2023-02-19T01:47:36;99852.09;;;13.78;52.62
65666;BME280;52365;47.464;18.976;2023-02-19T01:48:17;99854.53;;;13.97;52.31
65666;BME280;52365;47.464;18.976;2023-02-19T01:48:56;99847.44;;;13.64;53.13
65666;BME280;52365;47.464;18.976;2023-02-19T01:49:38;99843.94;;;13.58;53.26
65666;BME280;52365;47.464;18.976;2023-02-19T01:50:15;99851.31;;;13.57;53.44
65666;BME280;52365;47.464;18.976;2023-02-19T01:51:12;99852.97;;;13.90;52.76
65666;BME280;52365;47.464;18.976;2023-02-19T01:52:04;99850.66;;;13.83;52.68
65666;BME280;52365;47.464;18.976;2023-02-19T01:52:44;99841.78;;;13.62;53.38
65666;BME280;52365;47.464;18.976;2023-02-19T01:53:23;99850.34;;;13.60;53.46
65666;BME280;52365;47.464;18.976;2023-02-19T01:54:03;99853.16;;;13.66;53.32
65666;BME280;52365;47.464;18.976;2023-02-19T01:54:41;99855.75;;;13.60;53.30
65666;BME280;52365;47.464;18.976;2023-02-19T01:55:18;99849.47;;;13.49;53.72
65666;BME280;52365;47.464;18.976;2023-02-19T01:55:57;99840.59;;;13.48;53.80
65666;BME280;52365;47.464;18.976;2023-02-19T01:56:36;99848.00;;;13.68;53.72
65666;BME280;52365;47.464;18.976;2023-02-19T01:57:19;99839.19;;;13.53;53.63
65666;BME280;52365;47.464;18.976;2023-02-19T01:57:57;99839.63;;;13.66;53.56
65666;BME280;52365;47.464;18.976;2023-02-19T01:58:34;99839.28;;;13.79;53.22
65666;BME280;52365;47.464;18.976;2023-02-19T01:59:11;99839.88;;;13.68;53.28
65666;BME280;52365;47.464;18.976;2023-02-19T01:59:50;99849.72;;;13.66;53.30
65666;BME280;52365;47.464;18.976;2023-02-19T02:00:31;99835.44;;;13.50;53.81
65666;BME280;52365;47.464;18.976;2023-02-19T02:01:08;99842.81;;;13.50;54.15
65666;BME280;52365;47.464;18.976;2023-02-19T02:01:44;99850.03;;;13.38;54.13
65666;BME280;52365;47.464;18.976;2023-02-19T02:02:21;99838.50;;;13.58;53.67
65666;BME280;52365;47.464;18.976;2023-02-19T02:03:00;99843.66;;;13.56;53.58
65666;BME280;52365;47.464;18.976;2023-02-19T02:03:38;99850.13;;;13.44;54.22
65666;BME280;52365;47.464;18.976;2023-02-19T02:04:16;99845.41;;;13.59;53.60
65666;BME280;52365;47.464;18.976;2023-02-19T02:04:55;99850.47;;;13.51;53.84
65666;BME280;52365;47.464;18.976;2023-02-19T02:06:23;99842.50;;;13.63;53.25
65666;BME280;52365;47.464;18.976;2023-02-19T02:07:02;99847.75;;;13.51;53.55
65666;BME280;52365;47.464;18.976;2023-02-19T02:08:01;99845.41;;;13.59;53.54
65666;BME280;52365;47.464;18.976;2023-02-19T02:08:58;99844.75;;;13.64;53.07
65666;BME280;52365;47.464;18.976;2023-02-19T02:09:52;99843.00;;;13.61;53.22
65666;BME280;52365;47.464;18.976;2023-02-19T02:10:47;99827.94;;;13.40;53.99
65666;BME280;52365;47.464;18.976;2023-02-19T02:11:25;99835.31;;;13.24;54.24
65666;BME280;52365;47.464;18.976;2023-02-19T02:12:02;99833.53;;;13.36;54.15
65666;BME280;52365;47.464;18.976;2023-02-19T02:12:38;99839.38;;;13.49;54.08
65666;BME280;52365;47.464;18.976;2023-02-19T02:13:14;99840.41;;;13.72;53.34
65666;BME280;52365;47.464;18.976;2023-02-19T02:13:51;99845.47;;;13.65;53.17
65666;BME280;52365;47.464;18.976;2023-02-19T02:14:30;99846.22;;;13.65;53.21
65666;BME280;52365;47.464;18.976;2023-02-19T02:15:09;99856.31;;;13.65;53.24
65666;BME280;52365;47.464;18.976;2023-02-19T02:16:24;99846.09;;;13.54;53.53
65666;BME280;52365;47.464;18.976;2023-02-19T02:17:19;99852.28;;;13.75;53.08
65666;BME280;52365;47.464;18.976;2023-02-19T02:17:59;99851.81;;;13.76;52.71
65666;BME280;52365;47.464;18.976;2023-02-19T02:18:53;99857.06;;;13.65;52.98
65666;BME280;52365;47.464;18.976;2023-02-19T02:21:27;99845.28;;;13.48;53.15
65666;BME280;52365;47.464;18.976;2023-02-19T02:22:17;99851.88;;;13.62;53.03
65666;BME280;52365;47.464;18.976;2023-02-19T02:23:08;99845.66;;;13.76;52.43
65666;BME280;52365;47.464;18.976;2023-02-19T02:26:37;99848.87;;;14.00;52.16
65666;BME280;52365;47.464;18.976;2023-02-19T02:27:27;99846.31;;;14.32;51.28
65666;BME280;52365;47.464;18.976;2023-02-19T02:28:25;99845.88;;;14.39;50.97
65666;BME280;52365;47.464;18.976;2023-02-19T02:30:15;99840.69;;;13.95;52.08
65666;BME280;52365;47.464;18.976;2023-02-19T02:30:42;99839.63;;;13.86;52.84
65666;BME280;52365;47.464;18.976;2023-02-19T02:31:25;99841.25;;;13.99;52.53
65666;BME280;52365;47.464;18.976;2023-02-19T02:32:12;99842.53;;;13.83;52.99
65666;BME280;52365;47.464;18.976;2023-02-19T02:34:21;99834.19;;;13.66;53.80
65666;BME280;52365;47.464;18.976;2023-02-19T02:35:05;99837.53;;;13.41;54.33
65666;BME280;52365;47.464;18.976;2023-02-19T02:36:54;99841.09;;;13.67;53.86
65666;BME280;52365;47.464;18.976;2023-02-19T02:37:33;99840.13;;;13.50;54.53
65666;BME280;52365;47.464;18.976;2023-02-19T02:38:11;99839.75;;;13.57;54.52
65666;BME280;52365;47.464;18.976;2023-02-19T02:38:50;99841.22;;;13.58;54.51
65666;BME280;52365;47.464;18.976;2023-02-19T02:39:29;99840.09;;;13.85;53.92
65666;BME280;52365;47.464;18.976;2023-02-19T02:40:09;99845.03;;;14.07;53.28
65666;BME280;52365;47.464;18.976;2023-02-19T02:40:46;99835.03;;;13.93;53.63
65666;BME280;52365;47.464;18.976;2023-02-19T02:41:23;99832.38;;;13.78;53.98
65666;BME280;52365;47.464;18.976;2023-02-19T02:41:59;99836.78;;;13.75;54.13
65666;BME280;52365;47.464;18.976;2023-02-19T02:42:56;99837.00;;;13.92;53.84
65666;BME280;52365;47.464;18.976;2023-02-19T02:43:33;99840.69;;;13.95;53.64
65666;BME280;52365;47.464;18.976;2023-02-19T02:44:10;99836.50;;;13.73;54.19
65666;BME280;52365;47.464;18.976;2023-02-19T02:44:46;99836.62;;;13.64;54.69
65666;BME280;52365;47.464;18.976;2023-02-19T02:45:42;99836.62;;;13.64;54.61
65666;BME280;52365;47.464;18.976;2023-02-19T02:46:23;99836.88;;;13.46;55.72
65666;BME280;52365;47.464;18.976;2023-02-19T02:47:03;99825.78;;;13.44;55.82
65666;BME280;52365;47.464;18.976;2023-02-19T02:47:50;99837.16;;;13.48;55.90
65666;BME280;52365;47.464;18.976;2023-02-19T02:48:47;99838.22;;;13.56;55.71
65666;BME280;52365;47.464;18.976;2023-02-19T02:49:29;99833.37;;;13.60;55.68
65666;BME280;52365;47.464;18.976;2023-02-19T02:50:05;99833.16;;;13.28;56.77
65666;BME280;52365;47.464;18.976;2023-02-19T02:51:40;99828.78;;;13.31;57.40
65666;BME280;52365;47.464;18.976;2023-02-19T02:52:18;99831.44;;;13.46;57.13
65666;BME280;52365;47.464;18.976;2023-02-19T02:53:18;99829.09;;;13.53;56.95
65666;BME280;52365;47.464;18.976;2023-02-19T02:54:24;99825.22;;;13.40;57.25
65666;BME280;52365;47.464;18.976;2023-02-19T02:55:19;99826.41;;;13.53;57.10
65666;BME280;52365;47.464;18.976;2023-02-19T02:55:56;99833.41;;;14.01;55.85
65666;BME280;52365;47.464;18.976;2023-02-19T02:56:35;99832.22;;;14.07;55.28
65666;BME280;52365;47.464;18.976;2023-02-19T02:57:12;99831.88;;;14.00;55.52
65666;BME280;52365;47.464;18.976;2023-02-19T02:57:50;99830.25;;;13.67;56.43
65666;BME280;52365;47.464;18.976;2023-02-19T02:58:27;99834.63;;;13.44;57.21
65666;BME280;52365;47.464;18.976;2023-02-19T02:59:06;99834.34;;;13.42;57.78
65666;BME280;52365;47.464;18.976;2023-02-19T02:59:44;99835.38;;;13.45;57.50
65666;BME280;52365;47.464;18.976;2023-02-19T03:00:22;99840.63;;;13.33;57.75
65666;BME280;52365;47.464;18.976;2023-02-19T03:01:13;99838.59;;;13.14;58.29
65666;BME280;52365;47.464;18.976;2023-02-19T03:02:14;99837.75;;;13.22;58.25
65666;BME280;52365;47.464;18.976;2023-02-19T03:02:54;99836.13;;;13.45;57.57
65666;BME280;52365;47.464;18.976;2023-02-19T03:03:31;99840.44;;;13.37;58.06
65666;BME280;52365;47.464;18.976;2023-02-19T03:04:32;99838.59;;;13.14;58.61
65666;BME280;52365;47.464;18.976;2023-02-19T03:05:23;99833.25;;;13.19;58.53
65666;BME280;52365;47.464;18.976;2023-02-19T03:06:20;99835.09;;;13.43;57.87
65666;BME280;52365;47.464;18.976;2023-02-19T03:07:03;99828.78;;;13.86;56.65
65666;BME280;52365;47.464;18.976;2023-02-19T03:08:29;99830.06;;;14.11;55.23
65666;BME280;52365;47.464;18.976;2023-02-19T03:09:10;99828.50;;;13.84;56.07
65666;BME280;52365;47.464;18.976;2023-02-19T03:09:47;99825.25;;;13.80;56.35
65666;BME280;52365;47.464;18.976;2023-02-19T03:10:51;99822.62;;;14.06;55.93
65666;BME280;52365;47.464;18.976;2023-02-19T03:11:29;99823.78;;;13.79;56.22
65666;BME280;52365;47.464;18.976;2023-02-19T03:12:26;99826.06;;;13.86;56.15
65666;BME280;52365;47.464;18.976;2023-02-19T03:13:25;99825.78;;;13.64;56.62
65666;BME280;52365;47.464;18.976;2023-02-19T03:14:29;99830.59;;;13.95;56.23
65666;BME280;52365;47.464;18.976;2023-02-19T03:15:32;99832.31;;;13.72;56.55
65666;BME280;52365;47.464;18.976;2023-02-19T03:16:39;99839.31;;;13.64;57.17
65666;BME280;52365;47.464;18.976;2023-02-19T03:17:44;99827.75;;;13.14;57.90
65666;BME280;52365;47.464;18.976;2023-02-19T03:18:45;99829.97;;;13.45;57.37
65666;BME280;52365;47.464;18.976;2023-02-19T03:19:44;99838.31;;;13.26;57.63
65666;BME280;52365;47.464;18.976;2023-02-19T03:20:26;99834.88;;;13.61;56.83
65666;BME280;52365;47.464;18.976;2023-02-19T03:21:03;99833.66;;;13.62;56.57
65666;BME280;52365;47.464;18.976;2023-02-19T03:21:42;99830.88;;;13.56;56.62
65666;BME280;52365;47.464;18.976;2023-02-19T03:22:30;99828.03;;;13.30;57.39
65666;BME280;52365;47.464;18.976;2023-02-19T03:23:08;99832.13;;;13.41;57.34
65666;BME280;52365;47.464;18.976;2023-02-19T03:23:47;99841.16;;;13.73;56.17
65666;BME280;52365;47.464;18.976;2023-02-19T03:24:57;99838.47;;;13.73;56.12
65666;BME280;52365;47.464;18.976;2023-02-19T03:25:53;99844.69;;;13.58;56.35
65666;BME280;52365;47.464;18.976;2023-02-19T03:26:39;99847.38;;;13.23;57.33
65666;BME280;52365;47.464;18.976;2023-02-19T03:27:18;99843.19;;;13.22;57.64
65666;BME280;52365;47.464;18.976;2023-02-19T03:27:57;99852.00;;;13.08;57.96
65666;BME280;52365;47.464;18.976;2023-02-19T03:28:37;99844.06;;;13.49;57.17
65666;BME280;52365;47.464;18.976;2023-02-19T03:29:36;99850.06;;;13.94;55.81
65666;BME280;52365;47.464;18.976;2023-02-19T03:30:22;99846.53;;;14.28;54.44
65666;BME280;52365;47.464;18.976;2023-02-19T03:31:00;99851.00;;;14.31;54.16
65666;BME280;52365;47.464;18.976;2023-02-19T03:31:37;99841.47;;;14.42;53.85
65666;BME280;52365;47.464;18.976;2023-02-19T03:32:23;99840.00;;;13.59;55.75
65666;BME280;52365;47.464;18.976;2023-02-19T03:33:04;99835.19;;;13.69;56.06
65666;BME280;52365;47.464;18.976;2023-02-19T03:33:44;99826.88;;;13.72;55.78
65666;BME280;52365;47.464;18.976;2023-02-19T03:34:29;99834.44;;;13.48;56.51
65666;BME280;52365;47.464;18.976;2023-02-19T03:35:11;99831.31;;;13.05;57.87
65666;BME280;52365;47.464;18.976;2023-02-19T03:35:52;99826.34;;;13.18;58.12
65666;BME280;52365;47.464;18.976;2023-02-19T03:36:37;99830.38;;;13.58;56.75
65666;BME280;52365;47.464;18.976;2023-02-19T03:37:19;99831.78;;;13.89;55.77
65666;BME280;52365;47.464;18.976;2023-02-19T03:38:13;99831.63;;;13.42;56.59
65666;BME280;52365;47.464;18.976;2023-02-19T03:39:03;99836.81;;;13.25;57.64
65666;BME280;52365;47.464;18.976;2023-02-19T03:39:40;99835.84;;;13.43;57.15
65666;BME280;52365;47.464;18.976;2023-02-19T03:40:20;99831.63;;;13.42;57.15
65666;BME280;52365;47.464;18.976;2023-02-19T03:42:05;99843.25;;;13.13;57.43
65666;BME280;52365;47.464;18.976;2023-02-19T03:43:07;99841.28;;;12.99;58.14
65666;BME280;52365;47.464;18.976;2023-02-19T03:43:52;99840.66;;;13.04;58.36
65666;BME280;52365;47.464;18.976;2023-02-19T03:45:47;99841.47;;;13.40;57.23
65666;BME280;52365;47.464;18.976;2023-02-19T03:47:46;99836.84;;;13.81;56.06